Time;durP1;ratioP1;P1;durP2;ratioP2;P2;SDS_P1;SDS_P2;PMS_P1;PMS_P2;Temp;Humidity;BMP_temperature;BMP_pressure;BME280_temperature;BME280_humidity;BME280_pressure;Samples;Min_cycle;Max_cycle;Signal;HPM_P1;HPM_P2
2023/07/04 00:00:13;;;;;;;18.83;9.07;;;13.40;99.90;;;;;;4965532;28;20038;-75
2023/07/04 00:02:39;;;;;;;17.75;9.13;;;13.40;99.90;;;;;;4957669;28;20109;-76
2023/07/04 00:05:05;;;;;;;21.95;10.18;;;13.30;99.90;;;;;;4956629;28;20509;-76
2023/07/04 00:07:34;;;;;;;18.25;9.20;;;13.30;99.90;;;;;;4956054;28;20505;-76
2023/07/04 00:10:00;;;;;;;19.58;9.57;;;13.30;99.90;;;;;;4922281;28;20043;-76
2023/07/04 00:12:26;;;;;;;18.88;9.43;;;13.30;99.90;;;;;;4959235;28;20078;-76
2023/07/04 00:14:51;;;;;;;16.80;8.50;;;13.20;99.90;;;;;;4957014;28;20043;-76
2023/07/04 00:17:18;;;;;;;19.52;9.38;;;13.20;99.90;;;;;;4956975;28;20036;-76
2023/07/04 00:19:44;;;;;;;22.55;10.63;;;13.20;99.90;;;;;;4956438;28;20049;-76
2023/07/04 00:22:10;;;;;;;20.45;9.52;;;13.20;99.90;;;;;;4955984;28;20493;-76
2023/07/04 00:24:37;;;;;;;20.13;9.60;;;13.10;99.90;;;;;;4957083;28;20047;-76
2023/07/04 00:27:03;;;;;;;19.60;8.20;;;13.10;99.90;;;;;;4964643;28;20444;-76
2023/07/04 00:29:29;;;;;;;16.17;7.53;;;13.10;99.90;;;;;;4956625;28;20389;-76
2023/07/04 00:31:55;;;;;;;16.63;8.57;;;13.10;99.90;;;;;;4956675;28;20122;-76
2023/07/04 00:34:21;;;;;;;17.88;8.75;;;13.10;99.90;;;;;;4940972;28;20062;-76
2023/07/04 00:36:47;;;;;;;17.73;9.25;;;13.10;99.90;;;;;;4956768;28;20432;-76
2023/07/04 00:39:12;;;;;;;19.10;8.50;;;13.10;99.90;;;;;;4957980;28;20112;-76
2023/07/04 00:41:41;;;;;;;19.98;9.38;;;13.10;99.90;;;;;;4950239;28;20082;-76
2023/07/04 00:44:20;;;;;;;22.50;11.07;;;13.10;99.90;;;;;;4957020;28;20417;-75
2023/07/04 00:47:06;;;;;;;21.83;9.30;;;13.10;99.90;;;;;;4956668;28;20096;-75
2023/07/04 00:49:49;;;;;;;19.52;8.48;;;13.10;99.90;;;;;;4956210;28;20043;-76
2023/07/04 00:52:23;;;;;;;19.33;8.50;;;13.10;99.90;;;;;;4955858;28;20043;-76
2023/07/04 00:54:53;;;;;;;17.85;8.82;;;13.10;99.90;;;;;;4962122;28;20050;-76
2023/07/04 00:57:20;;;;;;;18.00;8.25;;;13.10;99.90;;;;;;4940353;28;20038;-76
2023/07/04 00:59:51;;;;;;;16.52;8.77;;;13.10;99.90;;;;;;4956473;28;20532;-76
2023/07/04 01:02:21;;;;;;;17.15;8.35;;;13.00;99.90;;;;;;4940263;28;20046;-76
2023/07/04 01:04:49;;;;;;;15.70;7.95;;;13.10;99.90;;;;;;4955905;28;20087;-76
2023/07/04 01:07:21;;;;;;;15.88;8.75;;;13.00;99.90;;;;;;4940460;28;20039;-76
2023/07/04 01:09:54;;;;;;;17.20;8.13;;;12.90;99.90;;;;;;4955067;28;20109;-76
2023/07/04 01:12:20;;;;;;;15.02;8.05;;;12.90;99.90;;;;;;4956464;28;20093;-76
2023/07/04 01:14:48;;;;;;;16.40;7.05;;;12.90;99.90;;;;;;4952976;28;20039;-76
2023/07/04 01:17:14;;;;;;;15.25;7.90;;;12.80;99.90;;;;;;4955877;28;20042;-76
2023/07/04 01:19:40;;;;;;;14.95;7.28;;;12.70;99.90;;;;;;4956157;28;20086;-76
2023/07/04 01:22:31;;;;;;;16.58;8.05;;;12.70;99.90;;;;;;4955614;28;20126;-76
2023/07/04 01:25:09;;;;;;;16.48;7.70;;;12.60;99.90;;;;;;4940118;28;20105;-76
2023/07/04 01:27:38;;;;;;;16.90;8.63;;;12.60;99.90;;;;;;4956101;28;20122;-76
2023/07/04 01:30:08;;;;;;;17.30;8.82;;;12.60;99.90;;;;;;4955034;28;20134;-76
2023/07/04 01:32:35;;;;;;;17.00;8.05;;;12.60;99.90;;;;;;4954777;28;20501;-76
2023/07/04 01:35:02;;;;;;;20.60;10.23;;;12.50;99.90;;;;;;4955916;28;20047;-76
2023/07/04 01:37:31;;;;;;;16.73;8.93;;;12.50;99.90;;;;;;4955666;28;20113;-75
2023/07/04 01:39:58;;;;;;;14.98;7.95;;;12.50;99.90;;;;;;4954882;28;20090;-75
2023/07/04 01:42:30;;;;;;;15.27;8.18;;;12.40;99.90;;;;;;4955188;28;20101;-76
2023/07/04 01:45:06;;;;;;;16.15;9.50;;;12.40;99.90;;;;;;4941191;28;20058;-76
2023/07/04 01:47:36;;;;;;;14.98;8.15;;;12.40;99.90;;;;;;4939376;28;20039;-76
2023/07/04 01:50:03;;;;;;;16.08;8.90;;;12.40;99.90;;;;;;4957708;28;20042;-76
2023/07/04 01:52:29;;;;;;;19.88;10.70;;;12.40;99.90;;;;;;4954845;28;20046;-75
2023/07/04 01:54:55;;;;;;;21.17;10.73;;;12.30;99.90;;;;;;4955703;28;20131;-76
2023/07/04 01:57:21;;;;;;;19.38;8.90;;;12.30;99.90;;;;;;4955728;28;20046;-76
2023/07/04 01:59:47;;;;;;;16.67;8.93;;;12.30;99.90;;;;;;4938283;28;20035;-76
2023/07/04 02:02:13;;;;;;;18.25;10.43;;;12.30;99.90;;;;;;4925221;29;20066;-75
2023/07/04 02:04:40;;;;;;;17.83;9.55;;;12.30;99.90;;;;;;4938352;28;20074;-75
2023/07/04 02:07:06;;;;;;;17.40;9.43;;;12.20;99.90;;;;;;4939352;28;20085;-76
2023/07/04 02:09:31;;;;;;;15.10;8.85;;;12.20;99.90;;;;;;4954959;28;20505;-76
2023/07/04 02:11:57;;;;;;;19.83;11.43;;;12.20;99.90;;;;;;4955254;28;20034;-76
2023/07/04 02:14:24;;;;;;;14.27;9.20;;;12.20;99.90;;;;;;4939423;28;20482;-76
2023/07/04 02:16:50;;;;;;;21.75;11.88;;;12.20;99.90;;;;;;4955661;28;20039;-75
2023/07/04 02:19:16;;;;;;;17.70;10.13;;;12.20;99.90;;;;;;4954318;28;20035;-76
2023/07/04 02:21:41;;;;;;;17.23;11.15;;;12.20;99.90;;;;;;4955042;28;20039;-76
2023/07/04 02:24:07;;;;;;;18.85;10.82;;;12.10;99.90;;;;;;4944384;28;20054;-76
2023/07/04 02:26:34;;;;;;;15.88;9.75;;;12.10;99.90;;;;;;4939277;28;20547;-76
2023/07/04 02:28:59;;;;;;;19.80;10.88;;;12.20;99.90;;;;;;4954959;28;20031;-76
2023/07/04 02:31:26;;;;;;;29.48;14.60;;;12.20;99.90;;;;;;4971257;28;20045;-76
2023/07/04 02:33:52;;;;;;;21.02;12.23;;;12.20;99.90;;;;;;4971677;28;20046;-76
2023/07/04 02:36:18;;;;;;;17.58;11.27;;;12.30;99.90;;;;;;4971077;28;20575;-75
2023/07/04 02:38:44;;;;;;;19.52;10.20;;;12.30;99.90;;;;;;4938841;28;20113;-76
2023/07/04 02:41:10;;;;;;;15.95;9.98;;;12.30;99.90;;;;;;4955387;28;20070;-76
2023/07/04 02:43:36;;;;;;;17.27;10.38;;;12.30;99.90;;;;;;4955349;28;20043;-75
2023/07/04 02:46:04;;;;;;;19.48;11.73;;;12.30;99.90;;;;;;4939252;28;20047;-75
2023/07/04 02:48:30;;;;;;;17.27;10.32;;;12.30;99.90;;;;;;4954039;28;20042;-75
2023/07/04 02:50:56;;;;;;;22.17;11.02;;;12.40;99.90;;;;;;4954929;28;20039;-76
2023/07/04 02:53:22;;;;;;;20.20;10.68;;;12.30;99.90;;;;;;4939424;28;20045;-76
2023/07/04 02:55:48;;;;;;;19.88;10.27;;;12.30;99.90;;;;;;4954950;28;20119;-76
2023/07/04 02:58:14;;;;;;;19.33;9.13;;;12.30;99.90;;;;;;4954219;28;20038;-76
2023/07/04 03:00:41;;;;;;;20.17;11.30;;;12.30;99.90;;;;;;4954938;28;20130;-76
2023/07/04 03:03:07;;;;;;;15.13;9.30;;;12.30;99.90;;;;;;4955269;28;20074;-76
2023/07/04 03:05:34;;;;;;;19.13;9.50;;;12.30;99.90;;;;;;4957362;28;20042;-76
2023/07/04 03:07:59;;;;;;;15.68;10.18;;;12.30;99.90;;;;;;4942337;28;20038;-75
2023/07/04 03:10:25;;;;;;;17.02;8.98;;;12.30;99.90;;;;;;4957436;28;20046;-76
2023/07/04 03:12:51;;;;;;;22.88;11.63;;;12.30;99.90;;;;;;4958495;28;20049;-76
2023/07/04 03:15:17;;;;;;;23.95;12.05;;;12.20;99.90;;;;;;4957523;28;20043;-76
2023/07/04 03:17:43;;;;;;;17.95;10.77;;;12.20;99.90;;;;;;4958344;28;20050;-76
2023/07/04 03:20:10;;;;;;;24.98;11.27;;;12.30;99.90;;;;;;4957413;28;20523;-75
2023/07/04 03:22:37;;;;;;;22.67;11.25;;;12.30;99.90;;;;;;4956992;28;20081;-76
2023/07/04 03:25:03;;;;;;;15.30;9.80;;;12.30;99.90;;;;;;4942183;28;20073;-76
2023/07/04 03:27:29;;;;;;;21.13;11.55;;;12.30;99.90;;;;;;4957332;28;20125;-76
2023/07/04 03:29:54;;;;;;;22.40;11.07;;;12.30;99.90;;;;;;4941397;28;20077;-75
2023/07/04 03:32:20;;;;;;;21.00;11.02;;;12.30;99.90;;;;;;4958210;28;20525;-76
2023/07/04 03:34:46;;;;;;;16.92;10.50;;;12.30;99.90;;;;;;4957462;28;20043;-76
2023/07/04 03:37:12;;;;;;;18.05;11.07;;;12.30;99.90;;;;;;4956933;28;20031;-76
2023/07/04 03:39:38;;;;;;;21.88;11.13;;;12.30;99.90;;;;;;4956990;28;20039;-76
2023/07/04 03:42:04;;;;;;;16.20;9.95;;;12.30;99.90;;;;;;4957140;28;20375;-75
2023/07/04 03:44:30;;;;;;;20.60;10.98;;;12.30;99.90;;;;;;4941792;28;20050;-76
2023/07/04 03:46:55;;;;;;;19.80;11.73;;;12.30;99.90;;;;;;4957114;28;20540;-75
2023/07/04 03:49:21;;;;;;;19.08;10.35;;;12.30;99.90;;;;;;4957001;28;20126;-76
2023/07/04 03:51:46;;;;;;;20.90;10.60;;;12.30;99.90;;;;;;4956776;28;20035;-76
2023/07/04 03:54:12;;;;;;;15.77;9.23;;;12.30;99.90;;;;;;4957076;28;20509;-76
2023/07/04 03:56:38;;;;;;;17.33;10.45;;;12.40;99.90;;;;;;4956452;28;20026;-76
2023/07/04 03:59:03;;;;;;;21.55;10.93;;;12.40;99.90;;;;;;4952244;28;20031;-75
2023/07/04 04:01:29;;;;;;;18.25;9.02;;;12.40;99.90;;;;;;4957440;28;20044;-76
2023/07/04 04:03:55;;;;;;;16.63;8.40;;;12.40;99.90;;;;;;4957699;28;20485;-76
2023/07/04 04:06:21;;;;;;;18.17;8.57;;;12.40;99.90;;;;;;4956876;28;20105;-76
2023/07/04 04:08:47;;;;;;;17.52;9.15;;;12.40;99.90;;;;;;4940301;28;20038;-76
2023/07/04 04:11:13;;;;;;;18.02;10.75;;;12.50;99.90;;;;;;4957519;28;20045;-76
2023/07/04 04:13:38;;;;;;;16.98;10.13;;;12.50;99.90;;;;;;4957103;28;20045;-75
2023/07/04 04:16:04;;;;;;;15.55;10.07;;;12.50;99.90;;;;;;4956478;28;20312;-75
2023/07/04 04:18:30;;;;;;;11.55;6.45;;;12.60;99.90;;;;;;4955672;28;20501;-75
2023/07/04 04:20:56;;;;;;;16.25;9.32;;;12.60;99.90;;;;;;4949197;28;20046;-75
2023/07/04 04:23:22;;;;;;;14.63;7.38;;;12.60;99.90;;;;;;4956801;28;20046;-75
2023/07/04 04:25:48;;;;;;;15.48;7.07;;;12.70;99.90;;;;;;4957180;28;20565;-76
2023/07/04 04:28:14;;;;;;;13.02;6.60;;;12.70;99.90;;;;;;4956353;28;20137;-76
2023/07/04 04:30:40;;;;;;;11.43;5.70;;;12.80;99.90;;;;;;4948394;28;20081;-76
2023/07/04 04:33:07;;;;;;;13.30;7.15;;;12.80;99.90;;;;;;4956129;28;20057;-76
2023/07/04 04:35:33;;;;;;;12.18;5.82;;;12.80;99.90;;;;;;4954908;28;20150;-75
2023/07/04 04:37:59;;;;;;;10.40;5.70;;;12.90;99.90;;;;;;4948585;28;20085;-75
2023/07/04 06:06:04;;;;;;;9.27;3.70;;;14.10;99.90;;;;;;4973481;28;20102;-82
2023/07/04 06:08:36;;;;;;;8.35;3.47;;;14.20;99.90;;;;;;4941318;28;20505;-81
2023/07/04 06:42:31;;;;;;;6.50;2.60;;;15.60;99.90;;;;;;4952713;28;20107;-80
2023/07/04 06:45:09;;;;;;;6.90;2.35;;;15.70;99.90;;;;;;4981253;28;20137;-79
2023/07/04 06:48:15;;;;;;;6.03;2.60;;;15.70;99.90;;;;;;4978161;28;20102;-78
2023/07/04 06:51:12;;;;;;;8.57;2.75;;;15.80;99.90;;;;;;4993072;28;20066;-80
2023/07/04 06:57:23;;;;;;;5.60;2.50;;;16.00;99.90;;;;;;4998520;28;20049;-81
2023/07/04 07:00:01;;;;;;;7.07;2.55;;;16.20;99.90;;;;;;4978839;28;20046;-81
2023/07/04 07:02:40;;;;;;;7.03;2.58;;;16.20;99.90;;;;;;4972066;28;20038;-81
2023/07/04 07:05:14;;;;;;;7.32;2.50;;;16.30;99.90;;;;;;4982493;28;20496;-81
2023/07/04 07:07:52;;;;;;;8.98;2.55;;;16.30;99.90;;;;;;4974568;28;20044;-80
2023/07/04 07:10:36;;;;;;;7.18;2.30;;;16.40;99.90;;;;;;4973670;28;20044;-80
2023/07/04 07:13:58;;;;;;;7.65;2.58;;;16.40;99.90;;;;;;4962534;28;20046;-82
2023/07/04 07:31:52;;;;;;;7.53;2.40;;;17.00;99.90;;;;;;4903699;29;20542;-80
2023/07/04 07:38:36;;;;;;;6.68;2.45;;;17.60;99.90;;;;;;4904719;29;20087;-81
2023/07/04 08:03:12;;;;;;;9.68;2.72;;;18.60;99.90;;;;;;4935497;28;20053;-81
2023/07/04 08:05:45;;;;;;;9.60;2.75;;;19.20;99.90;;;;;;4972953;28;20065;-81
2023/07/04 08:08:35;;;;;;;10.57;2.78;;;19.50;99.90;;;;;;4978624;28;20516;-80
2023/07/04 08:11:46;;;;;;;12.07;2.75;;;19.60;99.90;;;;;;4950896;28;20066;-81
2023/07/04 08:14:45;;;;;;;8.98;2.80;;;19.90;99.90;;;;;;4960903;28;20047;-81
2023/07/04 08:17:18;;;;;;;9.15;2.63;;;20.00;99.90;;;;;;4948179;28;20555;-81
2023/07/04 08:20:02;;;;;;;10.18;2.97;;;20.10;99.90;;;;;;4965359;28;20082;-80
2023/07/04 08:22:31;;;;;;;8.25;3.25;;;20.20;99.90;;;;;;4959680;28;20031;-81
2023/07/04 08:25:05;;;;;;;8.48;3.28;;;20.30;99.90;;;;;;4958912;28;20043;-81
2023/07/04 08:27:47;;;;;;;8.98;2.67;;;20.20;99.90;;;;;;4959209;28;20109;-80
2023/07/04 08:30:26;;;;;;;11.93;3.17;;;20.10;99.90;;;;;;4956933;28;20047;-81
2023/07/04 08:33:24;;;;;;;7.65;3.33;;;19.90;99.90;;;;;;4939249;29;20047;-81
2023/07/04 08:35:58;;;;;;;10.25;3.33;;;19.70;99.90;;;;;;4955449;28;20047;-80
2023/07/04 08:38:25;;;;;;;8.75;3.47;;;19.70;99.90;;;;;;4958855;28;20042;-81
2023/07/04 08:40:55;;;;;;;10.18;3.40;;;19.50;99.90;;;;;;4958807;28;20125;-81
2023/07/04 08:43:43;;;;;;;8.13;2.75;;;19.30;99.90;;;;;;4958789;28;20046;-80
2023/07/04 08:46:19;;;;;;;8.50;2.70;;;19.30;99.90;;;;;;4959048;28;20062;-81
2023/07/04 08:48:49;;;;;;;8.90;2.70;;;19.20;99.90;;;;;;4961206;28;20043;-79
2023/07/04 08:51:29;;;;;;;9.98;2.97;;;18.80;99.90;;;;;;4957884;28;20035;-80
2023/07/04 08:54:16;;;;;;;8.55;2.45;;;18.50;99.90;;;;;;4972409;28;20045;-81
2023/07/04 08:56:50;;;;;;;9.35;2.75;;;18.30;99.90;;;;;;4958245;28;20043;-80
2023/07/04 08:59:44;;;;;;;8.25;2.90;;;18.10;99.90;;;;;;4956842;28;20130;-81
2023/07/04 09:02:39;;;;;;;9.35;2.88;;;17.80;99.90;;;;;;4956639;28;20039;-80
2023/07/04 09:05:12;;;;;;;9.10;2.92;;;17.70;99.90;;;;;;4972839;28;20326;-81
2023/07/04 09:08:25;;;;;;;6.90;2.38;;;17.60;99.90;;;;;;4957507;28;20045;-81
2023/07/04 09:11:00;;;;;;;8.98;2.80;;;17.80;99.90;;;;;;4921987;28;20047;-81
2023/07/04 09:13:49;;;;;;;7.28;2.80;;;18.30;99.90;;;;;;4957696;28;20038;-79
2023/07/04 09:16:47;;;;;;;6.88;2.50;;;19.00;99.90;;;;;;4941913;28;20034;-81
2023/07/04 09:19:20;;;;;;;8.23;2.63;;;20.00;99.90;;;;;;4951526;28;20039;-81
2023/07/04 09:21:48;;;;;;;7.10;2.30;;;20.80;99.90;;;;;;4972811;28;20479;-81
2023/07/04 09:24:18;;;;;;;7.90;2.83;;;21.10;99.90;;;;;;4940609;28;20094;-80
2023/07/04 09:26:49;;;;;;;7.40;2.53;;;21.50;99.90;;;;;;4972342;28;20034;-81
2023/07/04 09:29:25;;;;;;;7.97;2.70;;;21.80;99.90;;;;;;4941113;28;20038;-81
2023/07/04 09:32:00;;;;;;;6.47;2.50;;;21.80;99.90;;;;;;4962380;28;20100;-80
2023/07/04 09:34:51;;;;;;;7.13;2.88;;;21.50;99.90;;;;;;4969375;28;20043;-81
2023/07/04 09:37:22;;;;;;;8.82;2.67;;;21.70;99.90;;;;;;4956901;28;20053;-81
2023/07/04 09:39:56;;;;;;;7.18;2.70;;;22.20;99.90;;;;;;4956612;28;20506;-82
2023/07/04 09:42:43;;;;;;;10.57;3.15;;;22.90;99.90;;;;;;4957183;28;20042;-81
2023/07/04 09:45:22;;;;;;;7.88;2.83;;;23.60;99.90;;;;;;4963227;28;20070;-81
2023/07/04 09:48:02;;;;;;;7.97;2.38;;;24.10;99.90;;;;;;4946123;28;20036;-82
2023/07/04 09:51:15;;;;;;;8.80;2.63;;;24.50;97.20;;;;;;4953823;28;20111;-81
2023/07/04 09:54:15;;;;;;;9.15;3.00;;;25.00;99.90;;;;;;4934167;28;20117;-81
2023/07/04 09:56:50;;;;;;;10.73;3.13;;;25.60;99.90;;;;;;4955800;28;20417;-81
2023/07/04 09:59:28;;;;;;;8.32;2.72;;;26.00;90.60;;;;;;4940811;28;20043;-80
2023/07/04 10:02:13;;;;;;;8.57;2.83;;;25.70;78.40;;;;;;4956314;28;20031;-82
2023/07/04 10:04:53;;;;;;;10.13;3.13;;;25.10;93.80;;;;;;4942468;28;20038;-81
2023/07/04 10:07:24;;;;;;;8.65;2.97;;;24.60;95.20;;;;;;4958136;28;20461;-82
2023/07/04 10:09:56;;;;;;;9.93;3.50;;;24.50;97.20;;;;;;4955839;28;20406;-81
2023/07/04 10:12:45;;;;;;;6.68;2.60;;;24.20;88.60;;;;;;4953954;28;20097;-82
2023/07/04 10:15:23;;;;;;;9.50;2.78;;;23.50;93.70;;;;;;4926240;29;20581;-81
2023/07/04 10:18:03;;;;;;;9.25;3.58;;;22.60;97.10;;;;;;4939431;28;20079;-81
2023/07/04 10:20:47;;;;;;;8.75;2.85;;;21.90;99.90;;;;;;4957224;28;20062;-81
2023/07/04 10:23:13;;;;;;;7.97;2.88;;;21.20;99.90;;;;;;4960831;28;20069;-81
2023/07/04 10:25:43;;;;;;;7.03;3.00;;;20.50;99.90;;;;;;4960460;28;20497;-80
2023/07/04 10:28:17;;;;;;;12.25;3.65;;;20.20;99.90;;;;;;4980182;28;20042;-81
2023/07/04 10:30:55;;;;;;;8.13;3.00;;;19.90;99.90;;;;;;4964159;28;20087;-82
2023/07/04 10:33:55;;;;;;;11.07;3.50;;;19.90;99.90;;;;;;4964399;28;20038;-80
2023/07/04 10:36:33;;;;;;;10.07;3.15;;;19.80;99.90;;;;;;4959720;29;20454;-80
2023/07/04 10:39:05;;;;;;;8.50;3.25;;;19.80;99.90;;;;;;4928014;29;20138;-80
2023/07/04 10:45:22;;;;;;;9.60;3.40;;;20.30;99.90;;;;;;4958223;28;20501;-81
2023/07/04 10:48:16;;;;;;;11.27;3.00;;;20.70;99.90;;;;;;4959435;28;20429;-80
2023/07/04 10:51:25;;;;;;;7.97;3.05;;;21.30;99.90;;;;;;4957763;28;20043;-81
2023/07/04 10:54:25;;;;;;;9.65;3.03;;;21.40;99.90;;;;;;4917151;29;20047;-80
2023/07/04 11:02:07;;;;;;;10.77;3.28;;;21.90;99.90;;;;;;4975518;28;20501;-81
2023/07/04 11:05:09;;;;;;;;;;;;;;;;;;;;;
2023/07/04 11:08:01;;;;;;;8.65;2.60;;;22.50;99.90;;;;;;4958268;29;20106;-81
2023/07/04 11:10:59;;;;;;;8.40;2.72;;;22.60;99.90;;;;;;4945501;28;20436;-81
2023/07/04 11:17:18;;;;;;;8.25;2.53;;;24.40;95.20;;;;;;4960913;28;20046;-81
2023/07/04 11:20:35;;;;;;;9.23;2.78;;;24.50;74.40;;;;;;4977396;28;20043;-81
2023/07/04 11:23:40;;;;;;;7.43;2.58;;;23.80;67.50;;;;;;4972071;28;20050;-81
2023/07/04 11:26:59;;;;;;;9.25;2.80;;;23.00;77.20;;;;;;4957041;28;20056;-80
2023/07/04 11:34:37;;;;;;;14.35;2.85;;;21.90;98.80;;;;;;4882912;29;20087;-80
2023/07/04 11:38:02;;;;;;;10.25;3.25;;;22.50;99.90;;;;;;4904952;28;20078;-81
2023/07/04 11:45:01;;;;;;;10.35;3.10;;;23.40;81.90;;;;;;4950306;28;20077;-80
2023/07/04 11:48:38;;;;;;;;;;;;;;;;;;;;;
2023/07/04 11:51:28;;;;;;;8.43;2.63;;;23.50;97.00;;;;;;4992331;28;20038;-81
2023/07/04 11:54:51;;;;;;;8.10;2.42;;;23.50;92.00;;;;;;4960673;28;20047;-80
2023/07/04 12:01:58;;;;;;;6.85;2.35;;;23.20;94.00;;;;;;4953176;29;20047;-81
2023/07/04 12:08:03;;;;;;;7.78;2.63;;;22.20;97.00;;;;;;4893724;29;20062;-80
2023/07/04 12:14:22;;;;;;;6.78;2.10;;;21.70;90.40;;;;;;4861205;29;20073;-80
2023/07/04 12:17:34;;;;;;;9.68;2.85;;;21.80;92.90;;;;;;4916874;28;20505;-81
2023/07/04 12:24:13;;;;;;;9.32;2.60;;;22.00;98.20;;;;;;4976519;28;20047;-81
2023/07/04 12:27:58;;;;;;;;;;;;;;;;;;;;;
2023/07/04 12:31:13;;;;;;;11.73;2.80;;;22.40;86.50;;;;;;4980180;28;20319;-82
2023/07/04 12:42:46;;;;;;;8.05;2.63;;;22.50;80.80;;;;;;4912460;29;20051;-79
2023/07/04 12:45:46;;;;;;;10.20;3.20;;;22.00;93.60;;;;;;4936820;28;20049;-81
2023/07/04 12:48:32;;;;;;;14.20;3.22;;;22.00;99.90;;;;;;4951959;28;20504;-81
2023/07/04 12:51:53;;;;;;;7.65;2.47;;;22.70;99.90;;;;;;4956179;29;20557;-79
2023/07/04 12:54:53;;;;;;;7.90;2.85;;;23.80;85.30;;;;;;4852664;29;20057;-79
2023/07/04 12:58:27;;;;;;;;;;;;;;;;;;;;;
2023/07/04 13:04:03;;;;;;;9.35;3.08;;;22.50;91.00;;;;;;5022424;23;20051;-80
2023/07/04 13:07:33;;;;;;;9.35;2.92;;;22.10;89.20;;;;;;4983329;28;20054;-80
2023/07/04 13:10:36;;;;;;;8.48;3.42;;;21.70;97.70;;;;;;4953122;28;20056;-78
2023/07/04 13:14:01;;;;;;;7.95;3.42;;;21.40;96.90;;;;;;4966180;28;20228;-80
2023/07/04 13:17:29;;;;;;;10.98;3.03;;;21.00;99.90;;;;;;4958605;28;20472;-79
2023/07/04 13:20:43;;;;;;;11.95;4.07;;;21.00;99.90;;;;;;4958706;28;20042;-80
2023/07/04 13:23:59;;;;;;;10.30;3.03;;;20.90;99.90;;;;;;4956357;28;20130;-81
2023/07/04 13:27:08;;;;;;;7.93;2.75;;;20.50;99.90;;;;;;4958275;28;20076;-80
2023/07/04 13:30:45;;;;;;;9.10;3.22;;;20.20;99.90;;;;;;4975637;28;20507;-80
2023/07/04 13:33:39;;;;;;;11.13;3.30;;;20.10;99.90;;;;;;4953532;28;20034;-79
2023/07/04 13:37:15;;;;;;;;;;;;;;;;;;;;;
2023/07/04 13:44:16;;;;;;;9.38;3.10;;;22.50;99.90;;;;;;4920189;29;20071;-81
2023/07/04 13:57:38;;;;;;;8.07;2.85;;;24.50;85.90;;;;;;4869707;29;20055;-79
2023/07/04 14:01:10;;;;;;;8.88;3.03;;;25.10;76.20;;;;;;4864431;29;20543;-81
2023/07/04 14:04:08;;;;;;;7.90;2.88;;;25.20;68.80;;;;;;4861736;29;20089;-79
2023/07/04 14:06:51;;;;;;;8.00;3.00;;;24.90;67.60;;;;;;4897735;28;20043;-80
2023/07/04 14:09:56;;;;;;;7.88;2.78;;;24.90;73.10;;;;;;4941189;28;20047;-80
2023/07/04 14:16:01;;;;;;;8.63;2.80;;;25.20;71.20;;;;;;4963569;28;20046;-79
2023/07/04 14:18:39;;;;;;;8.73;3.13;;;25.40;71.20;;;;;;4961433;28;20066;-80
2023/07/04 14:21:23;;;;;;;8.07;3.17;;;25.50;73.80;;;;;;4960662;28;20043;-79
2023/07/04 14:24:21;;;;;;;8.57;2.88;;;25.70;77.40;;;;;;4959999;28;20050;-79
2023/07/04 14:27:07;;;;;;;8.55;2.95;;;25.70;71.40;;;;;;4960584;28;20048;-80
2023/07/04 14:29:52;;;;;;;7.55;2.47;;;25.80;69.40;;;;;;4960220;28;20039;-80
2023/07/04 14:33:05;;;;;;;9.00;2.92;;;26.00;68.80;;;;;;4962315;28;20666;-79
2023/07/04 14:36:21;;;;;;;8.02;2.47;;;26.10;67.20;;;;;;4955218;28;20054;-80
2023/07/04 14:39:01;;;;;;;6.95;2.28;;;26.00;66.00;;;;;;4964783;28;20046;-79
2023/07/04 14:41:48;;;;;;;6.32;2.50;;;25.70;65.90;;;;;;4962842;28;20508;-81
2023/07/04 14:44:14;;;;;;;6.78;2.50;;;25.40;62.00;;;;;;4938089;28;20031;-79
2023/07/04 14:47:20;;;;;;;5.85;2.20;;;25.20;63.70;;;;;;4940964;28;20138;-79
2023/07/04 14:49:52;;;;;;;8.82;2.50;;;25.00;62.00;;;;;;4947507;28;20050;-80
2023/07/04 14:52:19;;;;;;;7.72;2.17;;;24.70;65.50;;;;;;4960599;28;20047;-79
2023/07/04 14:54:46;;;;;;;5.85;1.95;;;24.70;65.40;;;;;;4970049;28;20489;-78
2023/07/04 14:57:16;;;;;;;6.70;2.30;;;24.50;65.00;;;;;;4936787;28;20047;-80
2023/07/04 15:04:00;;;;;;;6.07;2.13;;;24.20;66.30;;;;;;4952532;28;20529;-78
2023/07/04 15:06:56;;;;;;;5.38;2.00;;;23.90;67.50;;;;;;4918481;29;20103;-80
2023/07/04 15:09:59;;;;;;;5.35;1.85;;;23.80;67.80;;;;;;4896773;29;20050;-81
2023/07/04 15:16:17;;;;;;;4.45;1.98;;;23.60;68.50;;;;;;5004816;28;20073;-81
2023/07/04 15:19:56;;;;;;;4.78;2.03;;;23.60;67.50;;;;;;4967854;28;20519;-80
2023/07/04 15:23:28;;;;;;;4.20;1.77;;;23.40;65.40;;;;;;4965700;28;20073;-79
2023/07/04 15:30:44;;;;;;;4.40;2.05;;;22.80;67.70;;;;;;5026665;23;20419;-79
2023/07/04 15:33:34;;;;;;;6.18;2.10;;;22.50;69.80;;;;;;4962292;28;20035;-79
2023/07/04 15:44:56;;;;;;;4.57;1.88;;;22.10;77.60;;;;;;4923390;29;20074;-79
2023/07/04 15:48:03;;;;;;;5.65;2.33;;;21.90;79.80;;;;;;4895107;29;20053;-80
2023/07/04 16:11:19;;;;;;;6.25;1.80;;;21.40;99.00;;;;;;4921335;28;20038;-79
2023/07/04 16:14:37;;;;;;;;;;;;;;;;;;;;;
2023/07/04 16:17:09;;;;;;;5.28;1.98;;;21.20;94.20;;;;;;4953548;29;20448;-78
2023/07/04 16:19:47;;;;;;;5.57;2.08;;;21.20;98.20;;;;;;4934579;28;20051;-77
2023/07/04 16:22:15;;;;;;;5.95;2.20;;;21.20;97.50;;;;;;4947233;28;20046;-78
2023/07/04 16:28:14;;;;;;;5.45;2.08;;;21.10;99.00;;;;;;4937222;29;20243;-81
2023/07/04 16:34:11;;;;;;;5.63;2.10;;;20.90;99.90;;;;;;4899683;29;20048;-78
2023/07/04 16:40:53;;;;;;;5.38;2.20;;;20.90;99.90;;;;;;4863724;29;20093;-79
2023/07/04 17:53:18;;;;;;;7.20;2.17;;;19.20;99.90;;;;;;6004385;23;20057;-79
2023/07/04 18:53:44;;;;;;;6.15;2.47;;;18.10;99.90;;;;;;5330187;23;20472;-78
2023/07/04 18:56:36;;;;;;;7.63;2.65;;;18.10;99.90;;;;;;4947866;28;20047;-79
2023/07/04 21:49:01;;;;;;;10.75;6.32;;;15.20;99.90;;;;;;4999106;28;20471;-78
2023/07/04 21:51:46;;;;;;;16.55;8.32;;;15.20;99.90;;;;;;4934592;28;20089;-80
2023/07/04 21:54:49;;;;;;;10.73;7.55;;;15.10;99.90;;;;;;4957991;28;20546;-80
2023/07/04 21:57:31;;;;;;;13.88;9.63;;;15.00;99.90;;;;;;4985511;28;20049;-79
2023/07/04 22:00:23;;;;;;;;;;;;;;;;;;;;;
2023/07/04 22:06:25;;;;;;;15.55;10.13;;;14.90;99.90;;;;;;4980673;28;20038;-80
2023/07/04 22:08:58;;;;;;;15.13;10.13;;;14.80;99.90;;;;;;4993062;28;20034;-80
2023/07/04 22:11:28;;;;;;;15.75;10.77;;;14.80;99.90;;;;;;4974870;28;20056;-79
2023/07/04 22:14:09;;;;;;;13.07;10.35;;;14.80;99.90;;;;;;4974919;28;20034;-79
2023/07/04 22:16:49;;;;;;;15.18;10.10;;;14.80;99.90;;;;;;4982419;28;20038;-80
2023/07/04 22:19:36;;;;;;;13.63;9.55;;;14.70;99.90;;;;;;4975970;28;20042;-80
2023/07/04 22:22:51;;;;;;;13.52;9.50;;;14.60;99.90;;;;;;4960185;28;20050;-80
2023/07/04 22:25:36;;;;;;;14.90;10.82;;;14.70;99.90;;;;;;4985231;28;20117;-80
2023/07/04 22:28:38;;;;;;;;;;;;;;;;;;;;;
2023/07/04 22:31:31;;;;;;;18.45;11.38;;;14.60;99.90;;;;;;4931782;29;20044;-80
2023/07/04 22:37:54;;;;;;;14.02;12.55;;;14.60;99.90;;;;;;4955468;28;20045;-80
2023/07/04 22:40:54;;;;;;;13.20;10.50;;;14.60;99.90;;;;;;4941775;28;20532;-80
2023/07/04 22:44:11;;;;;;;13.63;10.68;;;14.60;99.90;;;;;;4946706;28;20052;-81
2023/07/04 22:47:32;;;;;;;;;;;;;;;;;;;;;
2023/07/04 22:53:37;;;;;;;12.73;10.05;;;14.60;99.90;;;;;;4943338;28;20053;-80
2023/07/04 23:00:11;;;;;;;14.50;11.80;;;14.60;99.90;;;;;;4938963;29;20051;-80
2023/07/04 23:07:04;;;;;;;;;;;;;;;;;;;;;
2023/07/04 23:13:39;;;;;;;13.63;10.43;;;14.60;99.90;;;;;;4964428;28;20054;-81
2023/07/04 23:16:51;;;;;;;;;;;;;;;;;;;;;
2023/07/04 23:19:58;;;;;;;12.43;10.52;;;14.60;99.90;;;;;;4969427;28;20034;-80
2023/07/04 23:23:12;;;;;;;13.48;10.18;;;14.60;99.90;;;;;;4972516;28;20050;-81
2023/07/04 23:26:02;;;;;;;13.02;10.25;;;14.60;99.90;;;;;;4939414;28;20046;-81
2023/07/04 23:29:10;;;;;;;12.45;10.60;;;14.60;99.90;;;;;;4971669;28;20046;-81
2023/07/04 23:35:04;;;;;;;15.27;11.70;;;14.60;99.90;;;;;;4977140;28;20085;-81
2023/07/04 23:39:09;;;;;;;;;;;;;;;;;;;;;
2023/07/04 23:46:33;;;;;;;13.18;11.45;;;14.50;99.90;;;;;;4859004;29;20412;-80
2023/07/04 23:52:54;;;;;;;12.10;10.30;;;14.50;99.90;;;;;;4889577;28;20043;-81
2023/07/04 23:56:18;;;;;;;;;;;;;;;;;;;;;
2023/07/04 23:59:46;;;;;;;13.35;10.10;;;14.50;99.90;;;;;;4993727;28;20505;-81
